createdAt,value
2023-08-19T00:01:05.528Z,8.75
2023-08-19T00:03:35.710Z,8.43
2023-08-19T00:06:10.958Z,7.80
2023-08-19T00:08:37.934Z,8.50
2023-08-19T00:11:05.659Z,8.60
2023-08-19T00:13:32.557Z,8.70
2023-08-19T00:16:00.000Z,8.90
2023-08-19T00:18:26.804Z,9.40
2023-08-19T00:20:53.498Z,9.63
2023-08-19T00:23:24.862Z,9.00
2023-08-19T00:25:51.587Z,9.55
2023-08-19T00:28:18.259Z,9.52
2023-08-19T00:30:44.943Z,8.85
2023-08-19T00:33:11.698Z,9.45
2023-08-19T00:35:40.376Z,9.55
2023-08-19T00:38:07.260Z,8.93
2023-08-19T00:40:33.939Z,9.82
2023-08-19T00:43:00.662Z,8.80
2023-08-19T00:45:27.631Z,8.73
2023-08-19T00:47:54.594Z,9.00
2023-08-19T00:50:21.640Z,9.35
2023-08-19T00:52:48.478Z,9.23
2023-08-19T00:55:15.294Z,9.05
2023-08-19T00:57:43.923Z,9.65
2023-08-19T01:00:11.289Z,9.73
2023-08-19T01:02:38.135Z,9.40
2023-08-19T01:05:05.415Z,8.32
2023-08-19T01:07:50.339Z,8.88
2023-08-19T01:11:10.854Z,9.43
2023-08-19T01:13:59.992Z,8.55
2023-08-19T01:16:30.826Z,8.75
2023-08-19T01:18:58.981Z,9.98
2023-08-19T01:21:25.869Z,10.27
2023-08-19T01:23:59.329Z,10.57
2023-08-19T01:26:26.008Z,9.35
2023-08-19T01:28:52.664Z,9.70
2023-08-19T01:31:19.464Z,9.82
2023-08-19T01:33:46.226Z,9.07
2023-08-19T01:36:18.852Z,9.15
2023-08-19T01:38:52.833Z,9.98
2023-08-19T01:41:23.607Z,9.02
2023-08-19T01:43:50.566Z,9.65
2023-08-19T01:46:17.684Z,9.52
2023-08-19T01:48:44.393Z,9.35
2023-08-19T01:51:11.037Z,9.50
2023-08-19T01:53:37.689Z,10.15
2023-08-19T01:56:04.596Z,9.68
2023-08-19T01:58:31.221Z,10.32
2023-08-19T02:00:57.909Z,10.45
2023-08-19T02:03:24.549Z,9.15
2023-08-19T02:05:51.190Z,9.95
2023-08-19T02:08:17.785Z,10.38
2023-08-19T02:10:44.555Z,9.85
2023-08-19T02:13:11.358Z,9.98
2023-08-19T02:15:38.345Z,11.13
2023-08-19T02:18:05.630Z,10.68
2023-08-19T02:20:32.319Z,10.68
2023-08-19T02:23:01.756Z,10.95
2023-08-19T02:25:28.494Z,10.40
2023-08-19T02:27:55.173Z,10.63
2023-08-19T02:30:21.858Z,9.82
2023-08-19T02:32:48.537Z,9.88
2023-08-19T02:35:15.281Z,10.85
2023-08-19T02:37:42.358Z,11.95
2023-08-19T02:40:09.383Z,12.07
2023-08-19T02:42:36.094Z,10.93
2023-08-19T02:45:02.705Z,11.10
2023-08-19T02:47:29.524Z,11.75
2023-08-19T02:49:56.452Z,11.07
2023-08-19T02:52:23.109Z,11.50
2023-08-19T02:54:49.865Z,12.00
2023-08-19T02:57:16.480Z,12.18
2023-08-19T02:59:43.136Z,12.80
2023-08-19T03:02:09.792Z,12.52
2023-08-19T03:04:36.449Z,12.40
2023-08-19T03:07:03.216Z,12.15
2023-08-19T03:09:29.873Z,11.85
2023-08-19T03:11:56.545Z,12.18
2023-08-19T03:14:23.212Z,12.95
2023-08-19T03:16:51.385Z,12.18
2023-08-19T03:19:18.143Z,11.30
2023-08-19T03:21:44.757Z,13.70
2023-08-19T03:24:11.415Z,10.88
2023-08-19T03:26:38.040Z,12.00
2023-08-19T03:29:05.291Z,11.30
2023-08-19T03:31:32.130Z,10.52
2023-08-19T03:33:58.759Z,12.00
2023-08-19T03:36:25.524Z,12.68
2023-08-19T03:38:52.236Z,12.40
2023-08-19T03:41:18.834Z,11.85
2023-08-19T03:43:45.402Z,12.15
2023-08-19T03:46:12.074Z,11.30
2023-08-19T03:48:38.736Z,12.20
2023-08-19T03:51:05.374Z,11.13
2023-08-19T03:53:32.016Z,11.77
2023-08-19T03:55:58.626Z,11.90
2023-08-19T03:58:25.257Z,12.32
2023-08-19T04:00:52.033Z,11.77
2023-08-19T04:03:18.611Z,10.88
2023-08-19T04:05:45.208Z,12.93
2023-08-19T04:08:11.850Z,11.73
2023-08-19T04:10:38.666Z,12.10
2023-08-19T04:13:05.251Z,11.15
2023-08-19T04:15:33.215Z,10.65
2023-08-19T04:17:59.948Z,10.95
2023-08-19T04:20:26.723Z,11.48
2023-08-19T04:22:53.459Z,11.55
2023-08-19T04:25:20.128Z,11.70
2023-08-19T04:27:46.741Z,11.43
2023-08-19T04:30:14.265Z,11.38
2023-08-19T04:32:41.043Z,10.38
2023-08-19T04:35:08.794Z,10.93
2023-08-19T04:37:35.576Z,12.05
2023-08-19T04:40:02.236Z,12.48
2023-08-19T04:42:28.844Z,12.32
2023-08-19T04:44:55.509Z,12.00
2023-08-19T04:47:22.099Z,12.07
2023-08-19T04:49:48.729Z,13.60
2023-08-19T04:52:15.760Z,11.55
2023-08-19T04:54:42.375Z,12.93
2023-08-19T04:57:09.006Z,12.75
2023-08-19T04:59:35.811Z,12.68
2023-08-19T05:02:02.872Z,11.32
2023-08-19T05:04:29.559Z,11.50
2023-08-19T05:06:56.277Z,11.43
2023-08-19T05:09:22.982Z,11.18
2023-08-19T05:11:49.647Z,10.10
2023-08-19T05:14:16.330Z,11.10
2023-08-19T05:16:43.014Z,10.63
2023-08-19T05:19:18.019Z,11.52
2023-08-19T05:21:45.082Z,10.43
2023-08-19T05:24:12.506Z,10.48
2023-08-19T05:26:40.334Z,10.50
2023-08-19T05:29:07.189Z,10.63
2023-08-19T05:31:33.911Z,10.48
2023-08-19T05:34:00.596Z,10.68
2023-08-19T05:36:28.561Z,10.95
2023-08-19T05:38:55.423Z,11.13
2023-08-19T05:41:22.177Z,11.15
2023-08-19T05:43:49.074Z,11.60
2023-08-19T05:46:15.905Z,12.18
2023-08-19T05:48:42.625Z,10.77
2023-08-19T05:51:09.362Z,11.23
2023-08-19T05:53:36.056Z,10.75
2023-08-19T05:56:03.169Z,10.95
2023-08-19T05:58:29.821Z,11.60
2023-08-19T06:01:08.224Z,10.95
2023-08-19T06:03:35.142Z,11.23
2023-08-19T06:06:08.096Z,11.05
2023-08-19T06:08:35.642Z,11.90
2023-08-19T06:11:06.169Z,11.77
2023-08-19T06:13:33.422Z,12.30
2023-08-19T06:16:00.557Z,11.98
2023-08-19T06:18:27.542Z,11.48
2023-08-19T06:20:54.343Z,10.82
2023-08-19T06:23:21.221Z,10.40
2023-08-19T06:25:50.333Z,10.68
2023-08-19T06:28:17.971Z,10.48
2023-08-19T06:30:45.154Z,10.38
2023-08-19T06:33:12.388Z,10.88
2023-08-19T06:35:39.288Z,8.65
2023-08-19T06:38:16.033Z,9.77
2023-08-19T06:40:56.914Z,8.60
2023-08-19T06:43:26.576Z,8.60
2023-08-19T06:45:55.457Z,8.63
2023-08-19T06:48:24.497Z,8.70
2023-08-19T06:50:52.779Z,7.95
2023-08-19T06:53:20.582Z,7.53
2023-08-19T06:56:11.944Z,7.90
2023-08-19T06:58:43.159Z,6.78
2023-08-19T07:01:19.364Z,7.60
2023-08-19T07:03:46.679Z,7.60
2023-08-19T07:06:17.008Z,6.07
2023-08-19T07:08:45.073Z,6.35
2023-08-19T07:11:11.980Z,6.72
2023-08-19T07:13:38.854Z,6.32
2023-08-19T07:16:06.893Z,6.65
2023-08-19T07:18:41.862Z,6.00
2023-08-19T07:21:16.364Z,5.80
2023-08-19T07:23:46.552Z,5.45
2023-08-19T07:26:14.131Z,5.85
2023-08-19T07:28:41.143Z,5.95
2023-08-19T07:31:10.868Z,6.88
2023-08-19T07:33:37.480Z,6.78
2023-08-19T07:36:04.474Z,6.22
2023-08-19T07:38:31.184Z,6.47
2023-08-19T07:40:57.841Z,6.05
2023-08-19T07:43:24.629Z,5.82
2023-08-19T07:45:51.247Z,5.50
2023-08-19T07:48:17.954Z,5.82
2023-08-19T07:50:44.606Z,6.10
2023-08-19T07:53:11.259Z,5.63
2023-08-19T07:55:37.913Z,5.20
2023-08-19T07:58:04.756Z,5.45
2023-08-19T08:00:31.449Z,5.00
2023-08-19T08:02:58.120Z,5.07
2023-08-19T08:05:24.969Z,5.22
2023-08-19T08:07:51.666Z,5.15
2023-08-19T08:10:18.432Z,6.30
2023-08-19T08:12:45.112Z,5.68
2023-08-19T08:15:11.895Z,5.45
2023-08-19T08:17:38.548Z,5.68
2023-08-19T08:20:05.800Z,5.55
2023-08-19T08:22:34.060Z,5.35
2023-08-19T08:25:01.038Z,5.80
2023-08-19T08:27:27.726Z,5.45
2023-08-19T08:29:54.406Z,5.53
2023-08-19T08:32:21.082Z,5.70
2023-08-19T08:34:47.782Z,6.35
2023-08-19T08:37:14.820Z,5.63
2023-08-19T08:39:41.756Z,6.10
2023-08-19T08:42:10.173Z,5.85
2023-08-19T08:44:38.636Z,6.03
2023-08-19T08:47:05.680Z,5.50
2023-08-19T08:49:34.170Z,5.85
2023-08-19T08:52:02.083Z,6.00
2023-08-19T08:54:31.124Z,5.65
2023-08-19T08:56:57.872Z,5.88
2023-08-19T08:59:24.576Z,5.75
2023-08-19T09:01:51.749Z,5.53
2023-08-19T09:04:20.879Z,6.00
2023-08-19T09:06:50.497Z,6.00
2023-08-19T09:09:17.884Z,5.78
2023-08-19T09:11:49.850Z,5.82
2023-08-19T09:14:32.030Z,5.65
2023-08-19T09:16:58.833Z,5.93
2023-08-19T09:19:25.540Z,5.70
2023-08-19T09:21:52.204Z,5.88
2023-08-19T09:24:18.881Z,5.95
2023-08-19T09:26:46.274Z,6.35
2023-08-19T09:29:13.107Z,6.00
2023-08-19T09:31:40.959Z,5.60
2023-08-19T09:34:08.181Z,5.88
2023-08-19T09:36:34.854Z,6.45
2023-08-19T09:39:01.603Z,6.32
2023-08-19T09:41:31.485Z,6.03
2023-08-19T09:43:58.520Z,6.88
2023-08-19T09:46:35.208Z,6.50
2023-08-19T09:49:02.056Z,6.63
2023-08-19T09:51:30.477Z,6.55
2023-08-19T09:53:57.285Z,6.15
2023-08-19T09:56:27.408Z,6.28
2023-08-19T09:59:00.052Z,6.05
2023-08-19T10:01:28.451Z,6.22
2023-08-19T10:03:55.296Z,5.60
2023-08-19T10:06:28.239Z,5.82
2023-08-19T10:09:04.589Z,6.32
2023-08-19T10:11:32.955Z,5.43
2023-08-19T10:14:03.548Z,5.60
2023-08-19T10:16:34.054Z,5.80
2023-08-19T10:19:03.032Z,6.03
2023-08-19T10:21:32.292Z,4.72
2023-08-19T10:23:59.920Z,5.18
2023-08-19T10:26:27.337Z,6.07
2023-08-19T10:29:09.021Z,5.25
2023-08-19T10:31:36.986Z,5.60
2023-08-19T10:34:26.221Z,6.05
2023-08-19T10:37:09.929Z,5.90
2023-08-19T10:39:37.007Z,6.05
2023-08-19T10:42:04.630Z,5.88
2023-08-19T10:44:34.908Z,4.90
2023-08-19T10:47:10.570Z,5.80
2023-08-19T10:49:37.944Z,5.68
2023-08-19T10:52:06.750Z,5.68
2023-08-19T10:54:36.931Z,5.50
2023-08-19T10:57:18.631Z,5.15
2023-08-19T10:59:47.636Z,5.78
2023-08-19T11:02:15.161Z,5.88
2023-08-19T11:04:44.018Z,5.70
2023-08-19T11:07:12.039Z,5.78
2023-08-19T11:09:45.549Z,6.15
2023-08-19T11:12:15.958Z,5.80
2023-08-19T11:14:47.997Z,5.57
2023-08-19T11:17:16.306Z,5.55
2023-08-19T11:19:43.581Z,5.65
2023-08-19T11:22:17.146Z,5.53
2023-08-19T11:24:44.375Z,6.45
2023-08-19T11:27:12.444Z,4.68
2023-08-19T11:29:39.869Z,5.22
2023-08-19T11:32:07.091Z,5.18
2023-08-19T11:34:33.928Z,5.40
2023-08-19T11:37:06.404Z,5.40
2023-08-19T11:39:34.267Z,5.18
2023-08-19T11:42:02.592Z,5.28
2023-08-19T11:44:29.439Z,5.28
2023-08-19T11:46:59.614Z,5.65
2023-08-19T11:49:30.741Z,6.07
2023-08-19T11:51:57.556Z,5.70
2023-08-19T11:54:25.002Z,6.20
2023-08-19T11:56:53.076Z,7.00
2023-08-19T11:59:28.799Z,6.82
2023-08-19T12:01:55.541Z,6.30
2023-08-19T12:04:23.538Z,5.70
2023-08-19T12:06:50.786Z,6.13
2023-08-19T12:09:32.587Z,5.68
2023-08-19T12:12:07.603Z,6.03
2023-08-19T12:14:34.295Z,5.25
2023-08-19T12:17:00.881Z,5.63
2023-08-19T12:19:27.567Z,6.03
2023-08-19T12:21:54.310Z,5.70
2023-08-19T12:24:20.944Z,5.43
2023-08-19T12:26:48.130Z,5.10
2023-08-19T12:29:14.805Z,6.10
2023-08-19T12:31:41.472Z,5.32
2023-08-19T12:34:08.203Z,5.60
2023-08-19T12:36:35.093Z,5.60
2023-08-19T12:39:01.718Z,6.07
2023-08-19T12:41:28.391Z,5.97
2023-08-19T12:43:55.115Z,6.18
2023-08-19T12:46:21.983Z,5.93
2023-08-19T12:48:48.804Z,6.22
2023-08-19T12:51:18.359Z,5.88
2023-08-19T12:53:44.999Z,5.80
2023-08-19T12:56:11.904Z,6.40
2023-08-19T12:58:38.692Z,6.00
2023-08-19T13:01:08.392Z,6.10
2023-08-19T13:03:35.927Z,6.43
2023-08-19T13:06:02.752Z,5.55
2023-08-19T13:08:29.393Z,7.10
2023-08-19T13:10:56.037Z,5.85
2023-08-19T13:13:22.747Z,6.55
2023-08-19T13:15:49.346Z,5.97
2023-08-19T13:18:20.104Z,5.97
2023-08-19T13:20:46.838Z,6.05
2023-08-19T13:23:13.488Z,6.65
2023-08-19T13:25:40.186Z,6.18
2023-08-19T13:28:07.103Z,6.45
2023-08-19T13:30:33.740Z,6.65
2023-08-19T13:33:00.465Z,5.80
2023-08-19T13:35:27.125Z,6.18
2023-08-19T13:37:54.210Z,6.55
2023-08-19T13:40:20.974Z,6.75
2023-08-19T13:42:47.674Z,6.43
2023-08-19T13:45:14.673Z,6.10
2023-08-19T13:47:41.332Z,6.18
2023-08-19T13:50:08.766Z,5.50
2023-08-19T13:52:39.052Z,6.03
2023-08-19T13:55:07.912Z,5.75
2023-08-19T13:57:35.597Z,6.10
2023-08-19T14:00:02.546Z,6.05
2023-08-19T14:02:29.204Z,5.60
2023-08-19T14:04:55.938Z,6.43
2023-08-19T14:07:22.652Z,6.22
2023-08-19T14:09:49.370Z,6.47
2023-08-19T14:12:17.742Z,5.97
2023-08-19T14:14:44.441Z,6.10
2023-08-19T14:17:11.685Z,5.70
2023-08-19T14:19:38.405Z,5.95
2023-08-19T14:22:05.090Z,6.07
2023-08-19T14:24:31.696Z,9.02
2023-08-19T14:26:58.383Z,7.35
2023-08-19T14:29:25.017Z,6.05
2023-08-19T14:31:51.646Z,6.13
2023-08-19T14:34:18.370Z,6.20
2023-08-19T14:36:44.966Z,6.45
2023-08-19T14:39:12.355Z,6.70
2023-08-19T14:41:39.393Z,6.20
2023-08-19T14:44:06.786Z,6.78
2023-08-19T14:46:36.545Z,6.25
2023-08-19T14:49:03.527Z,6.35
2023-08-19T14:51:30.227Z,6.97
2023-08-19T14:53:56.851Z,6.22
2023-08-19T14:56:23.821Z,6.07
2023-08-19T14:58:50.494Z,6.63
2023-08-19T15:01:18.835Z,5.70
2023-08-19T15:03:46.559Z,5.60
2023-08-19T15:06:13.709Z,6.68
2023-08-19T15:08:40.370Z,6.88
2023-08-19T15:11:07.080Z,5.97
2023-08-19T15:13:33.699Z,6.65
2023-08-19T15:16:00.343Z,6.40
2023-08-19T15:18:27.245Z,5.80
2023-08-19T15:20:55.110Z,6.00
2023-08-19T15:23:21.739Z,6.30
2023-08-19T15:25:48.454Z,5.85
2023-08-19T15:28:15.130Z,6.45
2023-08-19T15:30:41.792Z,5.55
2023-08-19T15:33:08.546Z,6.38
2023-08-19T15:35:35.276Z,6.05
2023-08-19T15:38:04.237Z,6.43
2023-08-19T15:40:30.970Z,6.68
2023-08-19T15:42:57.837Z,6.43
2023-08-19T15:45:24.508Z,6.35
2023-08-19T15:47:51.335Z,6.55
2023-08-19T15:50:18.063Z,7.20
2023-08-19T15:52:45.342Z,6.10
2023-08-19T15:55:12.024Z,6.53
2023-08-19T15:57:38.701Z,6.90
2023-08-19T16:00:06.588Z,6.38
2023-08-19T16:02:33.313Z,7.05
2023-08-19T16:04:59.952Z,5.22
2023-08-19T16:07:37.982Z,5.97
2023-08-19T16:10:08.710Z,6.10
2023-08-19T16:12:37.016Z,6.68
2023-08-19T16:15:05.154Z,6.63
2023-08-19T16:17:31.850Z,6.53
2023-08-19T16:19:58.676Z,8.10
2023-08-19T16:22:25.519Z,7.65
2023-08-19T16:24:52.196Z,6.65
2023-08-19T16:27:18.959Z,6.65
2023-08-19T16:29:45.681Z,6.15
2023-08-19T16:32:12.527Z,6.53
2023-08-19T16:34:39.408Z,6.60
2023-08-19T16:37:07.020Z,6.05
2023-08-19T16:39:33.697Z,6.05
2023-08-19T16:42:00.543Z,6.43
2023-08-19T16:44:27.242Z,6.57
2023-08-19T16:46:53.976Z,6.10
2023-08-19T16:49:20.680Z,6.22
2023-08-19T16:51:47.320Z,6.78
2023-08-19T16:54:13.949Z,7.10
2023-08-19T16:56:40.721Z,6.63
2023-08-19T16:59:07.396Z,6.28
2023-08-19T17:01:34.018Z,6.68
2023-08-19T17:04:00.680Z,6.65
2023-08-19T17:06:27.364Z,7.15
2023-08-19T17:08:54.054Z,6.35
2023-08-19T17:11:20.937Z,6.60
2023-08-19T17:13:47.607Z,6.72
2023-08-19T17:16:15.228Z,6.10
2023-08-19T17:18:42.031Z,6.57
2023-08-19T17:21:10.466Z,6.50
2023-08-19T17:23:37.260Z,6.75
2023-08-19T17:26:03.956Z,7.40
2023-08-19T17:28:30.604Z,7.22
2023-08-19T17:31:05.180Z,7.47
2023-08-19T17:33:32.899Z,6.72
2023-08-19T17:36:04.489Z,6.65
2023-08-19T17:38:32.206Z,6.88
2023-08-19T17:41:06.391Z,7.00
2023-08-19T17:43:33.140Z,6.40
2023-08-19T17:46:00.001Z,6.20
2023-08-19T17:48:27.293Z,6.60
2023-08-19T17:50:54.264Z,6.85
2023-08-19T17:53:21.292Z,6.75
2023-08-19T17:55:48.118Z,6.15
2023-08-19T17:58:14.779Z,7.10
2023-08-19T18:00:43.745Z,7.00
2023-08-19T18:08:05.166Z,6.78
2023-08-19T18:10:31.949Z,7.07
2023-08-19T18:12:58.660Z,7.57
2023-08-19T18:15:25.551Z,8.00
2023-08-19T18:17:53.021Z,7.60
2023-08-19T18:20:20.608Z,7.68
2023-08-19T18:22:48.510Z,7.07
2023-08-19T18:25:16.296Z,8.27
2023-08-19T18:27:47.398Z,7.82
2023-08-19T18:30:15.682Z,7.30
2023-08-19T18:32:44.969Z,7.82
2023-08-19T18:35:12.985Z,7.65
2023-08-19T18:37:43.851Z,7.70
2023-08-19T18:40:12.629Z,8.32
2023-08-19T18:42:40.394Z,8.07
2023-08-19T18:45:09.188Z,8.27
2023-08-19T18:48:05.325Z,8.50
2023-08-19T18:50:33.560Z,9.82
2023-08-19T18:53:00.722Z,9.50
2023-08-19T18:55:32.139Z,9.38
2023-08-19T18:57:59.095Z,9.18
2023-08-19T19:00:26.769Z,9.35
2023-08-19T19:02:54.261Z,9.23
2023-08-19T19:05:22.133Z,9.68
2023-08-19T19:07:49.969Z,9.40
2023-08-19T19:10:17.284Z,10.30
2023-08-19T19:12:44.973Z,9.70
2023-08-19T19:15:11.750Z,9.68
2023-08-19T19:17:58.419Z,9.65
2023-08-19T19:20:28.519Z,9.25
2023-08-19T19:22:56.705Z,10.48
2023-08-19T19:25:23.540Z,11.32
2023-08-19T19:27:50.392Z,10.88
2023-08-19T19:30:19.270Z,10.73
2023-08-19T19:32:47.890Z,10.85
2023-08-19T19:35:16.469Z,11.52
2023-08-19T19:37:44.826Z,10.95
2023-08-19T19:40:13.712Z,10.95
2023-08-19T19:42:40.633Z,9.98
2023-08-19T19:45:08.974Z,10.93
2023-08-19T19:47:37.188Z,11.05
2023-08-19T19:50:05.365Z,10.43
2023-08-19T19:52:32.236Z,9.82
2023-08-19T19:54:59.047Z,10.70
2023-08-19T19:57:25.745Z,9.38
2023-08-19T19:59:52.668Z,11.35
2023-08-19T20:02:19.374Z,10.27
2023-08-19T20:04:46.013Z,10.07
2023-08-19T20:07:12.670Z,9.65
2023-08-19T20:09:39.285Z,10.52
2023-08-19T20:12:06.227Z,9.57
2023-08-19T20:14:32.936Z,11.10
2023-08-19T20:16:59.544Z,11.13
2023-08-19T20:19:26.830Z,10.75
2023-08-19T20:21:53.533Z,10.60
2023-08-19T20:24:20.270Z,10.80
2023-08-19T20:26:47.219Z,11.57
2023-08-19T20:29:13.830Z,11.57
2023-08-19T20:31:40.535Z,11.52
2023-08-19T20:34:07.134Z,11.63
2023-08-19T20:36:34.158Z,11.48
2023-08-19T20:39:01.723Z,11.88
2023-08-19T20:41:28.689Z,11.48
2023-08-19T20:44:27.886Z,11.82
2023-08-19T20:46:54.524Z,11.15
2023-08-19T20:49:21.172Z,12.45
2023-08-19T20:51:47.965Z,12.63
2023-08-19T20:54:14.580Z,11.90
2023-08-19T20:56:42.380Z,11.90
2023-08-19T20:59:11.711Z,11.75
2023-08-19T21:01:38.921Z,12.65
2023-08-19T21:04:05.759Z,12.32
2023-08-19T21:06:32.903Z,12.05
2023-08-19T21:08:59.573Z,11.93
2023-08-19T21:11:26.173Z,11.50
2023-08-19T21:13:52.843Z,11.50
2023-08-19T21:16:19.548Z,11.90
2023-08-19T21:18:46.230Z,11.90
2023-08-19T21:21:12.940Z,10.98
2023-08-19T21:23:39.647Z,12.02
2023-08-19T21:26:06.352Z,11.75
2023-08-19T21:28:34.286Z,11.95
2023-08-19T21:31:01.282Z,12.23
2023-08-19T21:33:28.853Z,11.85
2023-08-19T21:35:55.797Z,11.98
2023-08-19T21:38:22.697Z,11.55
2023-08-19T21:40:49.531Z,12.00
2023-08-19T21:43:16.306Z,12.18
2023-08-19T21:45:43.099Z,11.80
2023-08-19T21:48:13.856Z,12.13
2023-08-19T21:50:40.754Z,13.55
2023-08-19T21:53:08.539Z,13.20
2023-08-19T21:55:36.011Z,11.95
2023-08-19T21:58:03.922Z,12.32
2023-08-19T22:00:33.062Z,12.57
2023-08-19T22:03:02.849Z,13.63
2023-08-19T22:05:31.098Z,13.45
2023-08-19T22:07:58.294Z,12.88
2023-08-19T22:10:25.027Z,11.70
2023-08-19T22:12:51.670Z,12.73
2023-08-19T22:15:18.340Z,12.27
2023-08-19T22:17:45.046Z,12.45
2023-08-19T22:20:12.545Z,13.07
2023-08-19T22:22:40.206Z,12.73
2023-08-19T22:25:08.393Z,13.13
2023-08-19T22:27:36.502Z,13.02
2023-08-19T22:30:05.127Z,13.45
2023-08-19T22:32:32.236Z,13.57
2023-08-19T22:34:59.170Z,14.77
2023-08-19T22:37:25.907Z,13.10
2023-08-19T22:39:52.608Z,12.85
2023-08-19T22:42:20.133Z,12.90
2023-08-19T22:44:46.812Z,13.23
2023-08-19T22:47:13.513Z,13.68
2023-08-19T22:49:40.188Z,13.20
2023-08-19T22:52:08.642Z,13.43
2023-08-19T22:54:36.266Z,13.55
2023-08-19T22:57:04.058Z,13.50
2023-08-19T22:59:31.419Z,14.00
2023-08-19T23:01:58.783Z,13.23
2023-08-19T23:04:25.728Z,13.95
2023-08-19T23:06:52.616Z,13.90
2023-08-19T23:09:19.375Z,12.60
2023-08-19T23:11:46.108Z,13.32
2023-08-19T23:14:12.911Z,13.48
2023-08-19T23:16:39.686Z,12.02
2023-08-19T23:19:06.495Z,12.48
2023-08-19T23:21:44.080Z,13.35
2023-08-19T23:24:12.966Z,13.02
2023-08-19T23:26:39.748Z,13.98
2023-08-19T23:29:06.481Z,13.20
2023-08-19T23:31:33.251Z,13.98
2023-08-19T23:34:00.030Z,13.80
2023-08-19T23:36:26.858Z,12.57
2023-08-19T23:38:53.674Z,13.27
2023-08-19T23:41:20.323Z,13.52
2023-08-19T23:43:47.050Z,13.32
2023-08-19T23:46:15.965Z,13.52
2023-08-19T23:48:42.960Z,12.80
2023-08-19T23:51:14.961Z,13.68
2023-08-19T23:53:43.188Z,14.15
2023-08-19T23:56:10.367Z,12.68
2023-08-19T23:58:37.444Z,13.30
